Time;durP1;ratioP1;P1;durP2;ratioP2;P2;SDS_P1;SDS_P2;PMS_P1;PMS_P2;Temp;Humidity;BMP_temperature;BMP_pressure;BME280_temperature;BME280_humidity;BME280_pressure;Samples;Min_cycle;Max_cycle;Signal;HPM_P1;HPM_P2
2024/02/12 00:01:40;;;;;;;0.30;0.20;;;;;;;10.84;100.00;98420.69;5094890;28;20534;-49
2024/02/12 00:04:08;;;;;;;0.30;0.20;;;;;;;10.92;99.64;98424.59;5095091;28;20427;-49
2024/02/12 00:06:37;;;;;;;0.30;0.20;;;;;;;10.89;99.66;98422.13;5094737;28;20469;-49
2024/02/12 00:09:04;;;;;;;0.30;0.20;;;;;;;10.91;99.02;98427.34;5094719;28;20427;-49
2024/02/12 00:11:30;;;;;;;0.30;0.20;;;;;;;10.89;99.42;98418.59;5094801;28;20524;-49
2024/02/12 00:13:57;;;;;;;0.30;0.20;;;;;;;10.89;99.76;98426.59;5094782;28;20498;-49
2024/02/12 00:16:26;;;;;;;0.30;0.20;;;;;;;10.84;99.71;98426.88;5094629;28;20462;-48
2024/02/12 00:18:52;;;;;;;0.30;0.20;;;;;;;10.92;99.48;98424.59;5094631;28;20440;-50
2024/02/12 00:21:19;;;;;;;0.30;0.20;;;;;;;10.89;99.80;98427.44;5094513;28;20461;-48
2024/02/12 00:23:46;;;;;;;0.30;0.20;;;;;;;10.90;99.66;98420.31;5094477;28;20591;-49
2024/02/12 00:26:14;;;;;;;0.30;0.20;;;;;;;10.91;99.52;98430.00;5094533;28;20471;-48
2024/02/12 00:28:41;;;;;;;0.30;0.20;;;;;;;10.93;99.07;98436.06;5094291;28;20449;-49
2024/02/12 00:31:12;;;;;;;0.30;0.20;;;;;;;10.90;99.60;98429.16;5094439;28;20449;-48
2024/02/12 00:33:40;;;;;;;0.30;0.20;;;;;;;10.85;99.38;98431.22;5094701;28;20489;-49
2024/02/12 00:36:06;;;;;;;0.30;0.20;;;;;;;10.79;100.00;98433.38;5094085;28;20895;-48
2024/02/12 00:38:33;;;;;;;0.30;0.20;;;;;;;10.85;100.00;98441.88;5094524;28;20527;-48
2024/02/12 00:40:59;;;;;;;0.30;0.20;;;;;;;10.75;100.00;98442.50;5094201;28;20449;-48
2024/02/12 00:43:26;;;;;;;0.30;0.20;;;;;;;10.80;100.00;98449.25;5093942;28;20452;-49
2024/02/12 00:45:54;;;;;;;0.30;0.20;;;;;;;10.78;100.00;98440.50;5093789;28;20504;-49
2024/02/12 00:48:20;;;;;;;0.30;0.20;;;;;;;10.73;100.00;98439.94;5093543;28;20540;-47
2024/02/12 00:50:48;;;;;;;0.30;0.20;;;;;;;10.75;100.00;98439.84;5093800;28;20449;-49
2024/02/12 00:53:15;;;;;;;0.30;0.20;;;;;;;10.72;100.00;98442.69;5094399;28;20515;-47
2024/02/12 00:55:42;;;;;;;0.30;0.20;;;;;;;10.72;100.00;98443.53;5094285;28;20505;-49
2024/02/12 00:58:09;;;;;;;0.30;0.20;;;;;;;10.66;100.00;98444.72;5093974;28;20532;-49
2024/02/12 01:00:36;;;;;;;0.30;0.20;;;;;;;10.68;100.00;98453.47;5093723;28;20464;-49
2024/02/12 01:03:05;;;;;;;0.30;0.20;;;;;;;10.46;100.00;98454.81;5094033;28;20498;-49
2024/02/12 01:05:32;;;;;;;0.30;0.20;;;;;;;10.45;100.00;98459.28;5093769;28;20526;-49
2024/02/12 01:07:59;;;;;;;0.30;0.20;;;;;;;10.47;100.00;98459.19;5093922;28;20536;-48
2024/02/12 01:10:26;;;;;;;0.30;0.20;;;;;;;10.48;100.00;98460.91;5093830;28;20444;-48
2024/02/12 01:12:53;;;;;;;0.30;0.20;;;;;;;10.47;100.00;98460.03;5093524;28;20575;-50
2024/02/12 01:15:20;;;;;;;0.30;0.20;;;;;;;10.48;100.00;98461.75;5093762;28;20471;-48
2024/02/12 01:17:47;;;;;;;0.30;0.20;;;;;;;10.53;100.00;98466.78;5093549;28;20456;-51
2024/02/12 01:20:22;;;;;;;0.30;0.20;;;;;;;10.50;100.00;98473.16;5093815;28;20416;-49
2024/02/12 01:22:49;;;;;;;0.30;0.20;;;;;;;10.52;100.00;98465.09;5093504;28;20423;-48
2024/02/12 01:25:19;;;;;;;0.30;0.20;;;;;;;10.66;100.00;98478.41;5092217;28;20487;-50
2024/02/12 01:27:46;;;;;;;0.30;0.20;;;;;;;10.66;100.00;98467.78;5093141;28;20510;-50
2024/02/12 01:30:13;;;;;;;0.30;0.20;;;;;;;10.54;100.00;98482.63;5093207;28;20930;-49
2024/02/12 01:32:40;;;;;;;0.30;0.20;;;;;;;10.50;100.00;98485.56;5093435;28;20492;-48
2024/02/12 01:35:07;;;;;;;0.30;0.20;;;;;;;10.42;100.00;98493.13;5093169;28;20482;-48
2024/02/12 01:37:34;;;;;;;0.30;0.20;;;;;;;10.42;100.00;98487.81;5093004;28;20449;-48
2024/02/12 01:40:00;;;;;;;0.30;0.20;;;;;;;10.42;100.00;98490.47;5092992;28;20930;-49
2024/02/12 01:42:27;;;;;;;0.30;0.20;;;;;;;10.36;100.00;98497.84;5093128;28;20449;-49
2024/02/12 01:45:11;;;;;;;0.30;0.20;;;;;;;10.37;100.00;98499.53;5092557;28;21068;-48
2024/02/12 01:47:46;;;;;;;0.30;0.20;;;;;;;10.31;100.00;98497.25;5093017;28;20453;-48
2024/02/12 01:50:13;;;;;;;0.30;0.20;;;;;;;10.37;100.00;98502.19;5093167;28;20420;-48
2024/02/12 01:52:48;;;;;;;0.30;0.20;;;;;;;10.27;100.00;98503.66;5079615;28;20957;-49
2024/02/12 01:55:17;;;;;;;0.30;0.20;;;;;;;10.23;100.00;98503.91;5092684;28;20464;-49
2024/02/12 01:57:50;;;;;;;0.30;0.20;;;;;;;10.31;100.00;98499.91;5092878;28;20445;-48
2024/02/12 02:00:18;;;;;;;0.30;0.20;;;;;;;10.21;100.00;98505.78;5092816;28;20459;-49
2024/02/12 02:02:46;;;;;;;0.30;0.20;;;;;;;10.23;100.00;98504.78;5092498;28;20449;-48
2024/02/12 02:05:13;;;;;;;0.30;0.20;;;;;;;10.13;100.00;98513.31;5092610;28;20550;-49
2024/02/12 02:07:42;;;;;;;0.30;0.20;;;;;;;10.18;100.00;98517.44;5093078;28;20453;-48
2024/02/12 02:10:14;;;;;;;0.30;0.20;;;;;;;10.17;100.00;98520.19;5088748;28;20420;-48
2024/02/12 02:12:46;;;;;;;0.30;0.20;;;;;;;10.12;100.00;98517.75;5084043;28;20520;-49
2024/02/12 02:15:13;;;;;;;0.30;0.20;;;;;;;10.13;100.00;98519.47;5091098;28;20468;-48
2024/02/12 02:17:41;;;;;;;0.30;0.20;;;;;;;10.12;100.00;98522.22;5092455;28;20472;-48
2024/02/12 02:20:10;;;;;;;0.30;0.20;;;;;;;10.14;100.00;98518.53;5092201;28;20449;-49
2024/02/12 02:22:37;;;;;;;0.30;0.20;;;;;;;10.18;100.00;98521.88;5092316;28;20449;-48
2024/02/12 02:25:05;;;;;;;0.30;0.20;;;;;;;10.23;100.00;98519.84;5078882;28;20477;-48
2024/02/12 02:27:34;;;;;;;0.30;0.20;;;;;;;10.31;100.00;98529.13;5092321;28;20452;-48
2024/02/12 02:30:07;;;;;;;0.30;0.20;;;;;;;10.22;100.00;98526.97;5092120;28;20448;-48
2024/02/12 02:32:35;;;;;;;0.30;0.20;;;;;;;10.21;100.00;98521.72;5092000;28;20516;-49
2024/02/12 02:35:04;;;;;;;0.30;0.20;;;;;;;10.13;100.00;98522.13;5092068;28;20552;-48
2024/02/12 02:37:32;;;;;;;0.30;0.20;;;;;;;10.06;100.00;98529.56;5092205;28;20801;-49
2024/02/12 02:39:58;;;;;;;0.30;0.20;;;;;;;10.02;100.00;98533.34;5092114;28;20419;-47
2024/02/12 02:42:25;;;;;;;0.30;0.20;;;;;;;10.02;100.00;98537.81;5091987;28;20510;-48
2024/02/12 02:44:54;;;;;;;0.30;0.20;;;;;;;10.02;100.00;98524.53;5091827;28;20501;-50
2024/02/12 02:47:21;;;;;;;0.30;0.20;;;;;;;10.09;100.00;98533.84;5091699;28;20453;-48
2024/02/12 02:49:48;;;;;;;0.30;0.20;;;;;;;10.21;100.00;98535.88;5091763;28;20540;-49
2024/02/12 02:52:14;;;;;;;0.30;0.20;;;;;;;10.22;99.61;98542.03;5074926;22;20564;-52
2024/02/12 02:54:43;;;;;;;0.30;0.20;;;;;;;10.17;100.00;98536.97;5053328;28;20482;-53
2024/02/12 02:57:11;;;;;;;0.30;0.20;;;;;;;10.15;99.76;98543.31;5053250;28;20462;-52
2024/02/12 02:59:38;;;;;;;0.30;0.20;;;;;;;10.10;99.37;98546.19;5052994;28;20451;-52
2024/02/12 03:02:08;;;;;;;0.30;0.20;;;;;;;10.09;100.00;98545.34;5062714;28;20481;-53
2024/02/12 03:04:35;;;;;;;0.30;0.20;;;;;;;10.11;100.00;98542.59;5065383;28;20810;-52
2024/02/12 03:07:02;;;;;;;0.30;0.20;;;;;;;10.12;99.70;98546.94;5059131;28;20511;-52
2024/02/12 03:09:28;;;;;;;0.30;0.20;;;;;;;10.06;99.47;98550.81;5060388;28;20485;-53
2024/02/12 03:11:56;;;;;;;0.30;0.20;;;;;;;10.09;100.00;98560.41;5066429;28;21038;-53
2024/02/12 03:14:22;;;;;;;0.30;0.20;;;;;;;9.98;100.00;98568.09;5064531;28;20550;-53
2024/02/12 03:16:54;;;;;;;0.30;0.20;;;;;;;10.11;100.00;98569.13;5058730;28;20457;-53
2024/02/12 03:19:21;;;;;;;0.30;0.20;;;;;;;9.88;100.00;98577.50;5059489;28;20454;-52
2024/02/12 03:21:51;;;;;;;0.30;0.20;;;;;;;9.99;100.00;98567.16;5058732;28;20476;-52
2024/02/12 03:24:19;;;;;;;0.30;0.20;;;;;;;9.93;100.00;98575.44;5058467;28;20852;-53
2024/02/12 03:26:47;;;;;;;0.30;0.20;;;;;;;10.00;100.00;98584.78;5071221;28;20472;-51
2024/02/12 03:29:14;;;;;;;0.30;0.20;;;;;;;10.06;100.00;98587.97;5066604;28;20500;-53
2024/02/12 03:31:41;;;;;;;0.30;0.20;;;;;;;10.05;100.00;98585.41;5059950;28;20466;-53
2024/02/12 03:34:09;;;;;;;0.30;0.20;;;;;;;10.14;100.00;98584.88;5055459;28;20457;-53
2024/02/12 03:36:42;;;;;;;0.30;0.20;;;;;;;10.18;100.00;98593.56;5063991;28;20454;-51
2024/02/12 03:39:14;;;;;;;0.30;0.20;;;;;;;10.10;100.00;98594.84;5067438;28;20467;-52
2024/02/12 03:41:40;;;;;;;0.30;0.20;;;;;;;10.16;100.00;98598.97;5068646;28;20466;-52
2024/02/12 03:44:09;;;;;;;0.30;0.20;;;;;;;10.19;100.00;98606.75;5068633;28;20868;-53
2024/02/12 03:46:39;;;;;;;0.30;0.20;;;;;;;10.21;100.00;98602.25;5061109;28;20454;-53
2024/02/12 04:00:11;;;;;;;0.30;0.20;;;;;;;10.20;100.00;98624.41;5064953;28;20503;-52
2024/02/12 04:02:37;;;;;;;0.30;0.20;;;;;;;10.27;100.00;98627.59;5060696;28;20576;-51
2024/02/12 04:05:05;;;;;;;0.30;0.20;;;;;;;10.13;99.79;98633.63;5064950;28;20465;-52
2024/02/12 04:07:32;;;;;;;0.30;0.20;;;;;;;10.24;99.70;98639.25;5059347;28;20422;-52
2024/02/12 04:09:59;;;;;;;0.30;0.20;;;;;;;10.14;99.70;98634.47;5063947;28;20451;-52
2024/02/12 04:12:26;;;;;;;0.30;0.20;;;;;;;10.13;100.00;98646.91;5061238;28;20439;-52
2024/02/12 04:14:55;;;;;;;0.30;0.20;;;;;;;10.30;100.00;98648.72;5057577;28;20456;-51
2024/02/12 04:17:22;;;;;;;0.30;0.20;;;;;;;10.32;99.84;98641.50;5066186;28;20485;-52
2024/02/12 04:19:48;;;;;;;0.30;0.20;;;;;;;10.24;99.89;98649.88;5057149;28;20451;-52
2024/02/12 04:22:17;;;;;;;0.30;0.20;;;;;;;10.08;99.98;98647.16;5063741;28;20474;-51
2024/02/12 04:24:44;;;;;;;0.30;0.20;;;;;;;10.10;99.94;98655.88;5071613;28;20552;-51
2024/02/12 04:27:11;;;;;;;0.30;0.20;;;;;;;10.17;99.22;98667.06;5062999;28;20541;-51
2024/02/12 04:29:39;;;;;;;0.30;0.20;;;;;;;10.11;98.48;98664.72;5067575;28;20446;-51
2024/02/12 04:32:12;;;;;;;0.30;0.20;;;;;;;10.27;98.15;98664.78;5066374;28;20560;-51
2024/02/12 04:34:42;;;;;;;0.30;0.20;;;;;;;10.42;97.76;98669.28;5061111;28;20501;-51
2024/02/12 04:37:10;;;;;;;0.30;0.20;;;;;;;10.31;97.80;98669.88;5061076;28;20450;-51
2024/02/12 04:39:37;;;;;;;0.30;0.20;;;;;;;10.22;98.36;98680.97;5061300;28;20420;-51
2024/02/12 04:42:04;;;;;;;0.30;0.20;;;;;;;10.20;98.58;98696.09;5068235;28;20478;-52
2024/02/12 04:44:31;;;;;;;0.30;0.20;;;;;;;10.22;98.91;98691.59;5070682;28;20912;-52
2024/02/12 04:47:01;;;;;;;0.30;0.20;;;;;;;10.37;98.44;98693.44;5067645;28;20462;-50
2024/02/12 04:49:28;;;;;;;0.30;0.20;;;;;;;10.26;98.71;98694.94;5061554;28;20450;-51
2024/02/12 04:51:55;;;;;;;0.30;0.20;;;;;;;10.29;98.56;98700.09;5060395;28;20558;-51
2024/02/12 04:54:23;;;;;;;0.30;0.20;;;;;;;10.26;98.16;98702.91;5066450;28;20482;-52
2024/02/12 04:56:49;;;;;;;0.30;0.20;;;;;;;10.29;98.59;98700.09;5067479;28;20540;-51
2024/02/12 04:59:18;;;;;;;0.30;0.20;;;;;;;10.34;98.31;98708.69;5061998;28;20436;-53
2024/02/12 05:01:45;;;;;;;0.30;0.20;;;;;;;10.36;98.39;98706.78;5060155;28;20540;-52
2024/02/12 05:04:11;;;;;;;0.30;0.20;;;;;;;10.37;98.68;98711.16;5065867;28;20450;-52
2024/02/12 05:06:38;;;;;;;0.30;0.20;;;;;;;10.28;99.29;98716.94;5067182;28;20429;-52
2024/02/12 05:09:05;;;;;;;0.30;0.20;;;;;;;10.20;98.67;98719.13;5061860;28;20530;-52
2024/02/12 05:11:32;;;;;;;0.30;0.20;;;;;;;10.27;98.42;98709.94;5059087;28;20442;-52
2024/02/12 05:13:58;;;;;;;0.30;0.20;;;;;;;10.26;98.29;98725.00;5061871;28;20968;-52
2024/02/12 05:16:32;;;;;;;0.30;0.20;;;;;;;10.22;98.37;98717.28;5060246;28;20450;-52
2024/02/12 05:24:33;;;;;;;0.30;0.20;;;;;;;10.24;96.65;98721.56;5067004;28;20516;-51
2024/02/12 05:27:01;;;;;;;0.40;0.20;;;;;;;10.24;96.63;98724.22;5062503;28;20507;-52
2024/02/12 05:29:28;;;;;;;0.30;0.20;;;;;;;10.31;96.56;98714.16;5059742;28;20421;-52
2024/02/12 05:31:54;;;;;;;0.30;0.20;;;;;;;10.33;96.01;98729.06;5063800;28;20477;-51
2024/02/12 05:34:23;;;;;;;0.30;0.20;;;;;;;10.55;95.65;98722.59;5066522;28;20486;-51
2024/02/12 05:36:51;;;;;;;0.30;0.20;;;;;;;10.31;95.31;98732.75;5062657;28;20969;-52
2024/02/12 05:39:21;;;;;;;0.30;0.20;;;;;;;10.34;95.59;98735.25;5060244;28;20446;-52
2024/02/12 05:41:48;;;;;;;0.30;0.20;;;;;;;10.43;94.93;98733.91;5068983;28;20497;-52
2024/02/12 05:44:18;;;;;;;0.30;0.20;;;;;;;10.33;94.86;98739.69;5070780;28;20530;-52
2024/02/12 05:46:44;;;;;;;0.30;0.20;;;;;;;10.38;94.17;98740.28;5066620;28;20458;-51
2024/02/12 05:49:14;;;;;;;0.30;0.20;;;;;;;10.27;94.20;98747.09;5068477;28;20457;-52
2024/02/12 05:51:44;;;;;;;0.30;0.20;;;;;;;10.45;93.95;98754.13;5064389;28;20855;-52
2024/02/12 05:54:11;;;;;;;0.30;0.20;;;;;;;10.52;92.76;98750.19;5059620;28;20493;-52
2024/02/12 05:56:39;;;;;;;0.30;0.20;;;;;;;10.41;93.33;98757.00;5060308;28;20455;-52
2024/02/12 05:59:08;;;;;;;0.30;0.20;;;;;;;10.31;92.93;98748.69;5065807;28;20455;-52
2024/02/12 06:01:35;;;;;;;0.30;0.20;;;;;;;10.34;93.52;98752.03;5065553;28;20448;-52
2024/02/12 06:04:01;;;;;;;0.30;0.20;;;;;;;10.34;93.55;98759.13;5059431;28;20446;-52
2024/02/12 06:06:27;;;;;;;0.30;0.20;;;;;;;10.32;94.03;98761.03;5059936;28;20460;-53
2024/02/12 06:08:54;;;;;;;0.30;0.20;;;;;;;10.14;94.36;98761.91;5066401;28;20458;-52
2024/02/12 06:11:21;;;;;;;0.30;0.20;;;;;;;10.24;94.14;98765.84;5065634;28;20470;-52
2024/02/12 06:13:47;;;;;;;0.30;0.20;;;;;;;10.18;94.06;98772.31;5065546;28;20486;-52
2024/02/12 06:16:14;;;;;;;0.30;0.20;;;;;;;10.16;93.22;98779.50;5064885;28;20450;-51
2024/02/12 06:18:40;;;;;;;0.30;0.20;;;;;;;10.38;92.18;98779.28;5059329;28;20541;-52
2024/02/12 06:21:07;;;;;;;0.30;0.20;;;;;;;10.19;93.06;98782.00;5058788;28;20453;-52
2024/02/12 06:23:33;;;;;;;0.30;0.20;;;;;;;10.15;93.18;98788.41;5065375;28;20449;-52
2024/02/12 06:26:00;;;;;;;0.30;0.20;;;;;;;10.14;92.55;98791.97;5065412;28;20453;-52
2024/02/12 06:28:26;;;;;;;0.30;0.20;;;;;;;10.33;92.48;98798.13;5059583;28;20449;-51
2024/02/12 06:30:53;;;;;;;0.30;0.20;;;;;;;10.15;92.00;98795.53;5058715;28;20494;-50
2024/02/12 06:33:20;;;;;;;0.30;0.20;;;;;;;10.18;91.39;98790.06;5065254;28;20497;-51
2024/02/12 06:35:46;;;;;;;0.30;0.20;;;;;;;10.32;91.18;98800.84;5065766;28;20991;-52
2024/02/12 06:38:14;;;;;;;0.30;0.20;;;;;;;10.13;91.19;98800.03;5058943;28;20529;-52
2024/02/12 06:40:41;;;;;;;0.30;0.20;;;;;;;10.21;91.14;98804.06;5071815;28;20462;-52
2024/02/12 06:43:07;;;;;;;0.30;0.20;;;;;;;10.18;90.91;98812.16;5071966;28;20533;-52
2024/02/12 06:45:34;;;;;;;0.30;0.20;;;;;;;10.12;91.21;98806.28;5069849;28;20442;-52
2024/02/12 06:48:01;;;;;;;0.30;0.20;;;;;;;10.30;91.16;98813.38;5067716;28;20548;-52
2024/02/12 06:50:27;;;;;;;0.30;0.20;;;;;;;10.15;90.87;98816.78;5058523;28;20421;-53
2024/02/12 06:52:54;;;;;;;0.30;0.20;;;;;;;10.20;90.93;98820.91;5063008;28;20421;-52
2024/02/12 06:55:21;;;;;;;0.30;0.20;;;;;;;10.06;91.31;98841.97;5067122;28;21020;-51
2024/02/12 06:57:48;;;;;;;0.30;0.20;;;;;;;10.15;90.92;98833.56;5062683;28;20947;-52
2024/02/12 07:00:19;;;;;;;0.30;0.20;;;;;;;10.08;91.27;98837.44;5065392;28;20493;-52
2024/02/12 07:02:46;;;;;;;0.30;0.20;;;;;;;10.12;91.17;98841.66;5061838;28;20499;-52
2024/02/12 07:05:17;;;;;;;0.30;0.20;;;;;;;10.18;91.02;98851.97;5058522;28;21097;-51
2024/02/12 07:07:45;;;;;;;0.30;0.20;;;;;;;10.03;92.50;98852.75;5071984;28;20445;-53
2024/02/12 07:10:12;;;;;;;0.30;0.20;;;;;;;10.05;93.29;98858.84;5057952;28;20450;-52
2024/02/12 07:12:39;;;;;;;0.30;0.20;;;;;;;9.94;93.73;98862.00;5071582;28;20497;-52
2024/02/12 07:15:07;;;;;;;0.30;0.20;;;;;;;9.87;93.22;98857.06;5058139;28;20863;-51
2024/02/12 07:17:34;;;;;;;0.30;0.20;;;;;;;9.86;93.42;98860.66;5060713;28;20529;-51
2024/02/12 07:20:05;;;;;;;0.30;0.20;;;;;;;9.89;93.15;98858.75;5064969;28;20507;-52
2024/02/12 07:22:31;;;;;;;0.30;0.20;;;;;;;9.85;93.67;98864.25;5063219;28;20476;-52
2024/02/12 07:24:58;;;;;;;0.30;0.20;;;;;;;9.89;93.84;98866.69;5058403;28;20446;-52
2024/02/12 07:27:24;;;;;;;0.30;0.20;;;;;;;9.77;94.15;98869.94;5059904;28;20453;-53
2024/02/12 07:29:51;;;;;;;0.30;0.20;;;;;;;9.55;95.13;98874.53;5064664;28;20447;-52
2024/02/12 07:32:19;;;;;;;0.30;0.20;;;;;;;9.48;95.73;98873.97;5063515;28;20476;-53
2024/02/12 07:34:46;;;;;;;0.30;0.20;;;;;;;9.61;95.36;98879.56;5057992;28;21063;-53
2024/02/12 07:37:13;;;;;;;0.30;0.20;;;;;;;9.56;96.15;98882.41;5058908;28;20450;-53
2024/02/12 07:39:40;;;;;;;0.30;0.20;;;;;;;9.69;96.00;98896.81;5071111;28;20541;-52
2024/02/12 07:42:08;;;;;;;0.30;0.20;;;;;;;9.73;95.45;98892.22;5064929;28;20565;-51
2024/02/12 07:44:34;;;;;;;0.30;0.20;;;;;;;9.85;95.44;98896.09;5071247;28;20446;-52
2024/02/12 07:47:03;;;;;;;0.30;0.20;;;;;;;9.86;95.57;98898.66;5065188;28;20462;-52
2024/02/12 07:49:31;;;;;;;0.30;0.20;;;;;;;9.88;95.45;98901.28;5064013;28;20533;-52
2024/02/12 07:52:01;;;;;;;0.30;0.20;;;;;;;9.88;95.63;98899.47;5064311;28;20474;-53
2024/02/12 07:54:28;;;;;;;0.30;0.20;;;;;;;9.95;95.50;98910.66;5059295;28;20492;-52
2024/02/12 07:56:55;;;;;;;0.30;0.20;;;;;;;10.01;95.15;98905.91;5060476;28;20507;-52
2024/02/12 07:59:24;;;;;;;0.30;0.20;;;;;;;9.98;95.57;98902.53;5065245;28;20450;-52
2024/02/12 08:01:51;;;;;;;0.30;0.20;;;;;;;10.05;95.26;98914.59;5068430;28;20465;-52
2024/02/12 08:04:19;;;;;;;0.30;0.20;;;;;;;10.05;95.18;98918.09;5064041;28;20927;-52
2024/02/12 08:06:46;;;;;;;0.30;0.20;;;;;;;9.98;94.81;98915.81;5061672;28;20450;-51
2024/02/12 08:09:14;;;;;;;0.30;0.20;;;;;;;9.97;95.56;98924.69;5065883;28;20504;-51
2024/02/12 08:11:41;;;;;;;0.30;0.20;;;;;;;9.90;95.71;98924.16;5071397;28;20480;-51
2024/02/12 08:14:11;;;;;;;0.30;0.20;;;;;;;9.90;95.77;98932.13;5064320;28;20568;-52
2024/02/12 08:16:38;;;;;;;0.30;0.20;;;;;;;10.05;95.33;98934.03;5068170;28;20473;-51
2024/02/12 08:19:04;;;;;;;0.30;0.20;;;;;;;10.03;95.32;98935.91;5064085;28;20449;-51
2024/02/12 08:21:31;;;;;;;0.30;0.20;;;;;;;10.05;96.50;98952.63;5061455;28;20556;-51
2024/02/12 08:23:57;;;;;;;0.30;0.20;;;;;;;10.01;96.56;98945.75;5064271;28;20470;-51
2024/02/12 08:26:25;;;;;;;0.30;0.20;;;;;;;9.98;96.31;98951.16;5068280;28;20447;-51
2024/02/12 08:28:51;;;;;;;0.30;0.20;;;;;;;10.02;95.78;98947.47;5054691;28;20458;-52
2024/02/12 08:31:18;;;;;;;0.30;0.20;;;;;;;10.08;95.95;98952.47;5067668;28;20470;-51
2024/02/12 08:33:44;;;;;;;0.30;0.20;;;;;;;10.12;96.48;98965.56;5065550;28;20453;-52
2024/02/12 08:36:11;;;;;;;0.30;0.20;;;;;;;10.14;96.56;98959.25;5061010;28;20492;-52
2024/02/12 08:38:38;;;;;;;0.30;0.20;;;;;;;10.08;96.63;98964.88;5063375;28;20965;-52
2024/02/12 08:41:04;;;;;;;0.30;0.20;;;;;;;10.11;96.68;98975.34;5072683;28;20444;-52
2024/02/12 08:43:31;;;;;;;0.43;0.43;;;;;;;10.07;96.55;98976.44;5067682;28;20799;-52
2024/02/12 08:45:57;;;;;;;0.30;0.20;;;;;;;10.02;97.15;98984.63;5068546;28;20474;-52
2024/02/12 08:48:25;;;;;;;0.30;0.20;;;;;;;10.05;97.16;98978.31;5073267;28;20553;-51
2024/02/12 08:50:53;;;;;;;0.30;0.20;;;;;;;10.09;97.63;98986.03;5069707;22;20488;-47
2024/02/12 08:53:19;;;;;;;0.30;0.20;;;;;;;10.09;96.50;98996.66;5033860;28;20455;-47
2024/02/12 08:55:46;;;;;;;0.30;0.20;;;;;;;10.16;96.66;98999.03;5020949;28;20469;-48
2024/02/12 08:58:13;;;;;;;0.30;0.20;;;;;;;10.34;96.32;98995.53;5034166;28;20418;-49
2024/02/12 09:00:44;;;;;;;0.30;0.20;;;;;;;10.26;96.32;99006.50;5033824;28;20469;-49
2024/02/12 09:03:13;;;;;;;0.30;0.20;;;;;;;10.26;96.55;99003.84;5014312;28;20423;-48
2024/02/12 09:05:40;;;;;;;0.30;0.20;;;;;;;10.23;96.24;99001.34;5014162;28;20525;-48
2024/02/12 09:08:08;;;;;;;0.30;0.20;;;;;;;10.21;96.72;98999.66;5013516;28;20449;-48
2024/02/12 09:10:34;;;;;;;0.30;0.20;;;;;;;10.52;95.54;99012.34;5014268;28;20877;-49
2024/02/12 09:13:04;;;;;;;0.30;0.20;;;;;;;10.49;94.46;99012.50;5045285;28;20555;-49
2024/02/12 09:15:31;;;;;;;0.30;0.20;;;;;;;10.40;94.69;99016.47;5013884;28;20488;-49
2024/02/12 09:17:57;;;;;;;0.30;0.20;;;;;;;10.59;94.60;99017.31;5013912;28;20531;-48
2024/02/12 09:20:24;;;;;;;0.30;0.20;;;;;;;10.66;92.69;99023.16;5014075;28;20452;-48
2024/02/12 09:22:53;;;;;;;0.30;0.20;;;;;;;10.48;93.26;99029.38;5013752;28;20479;-48
2024/02/12 09:25:21;;;;;;;0.30;0.20;;;;;;;10.65;93.90;99038.25;5013756;28;20460;-48
2024/02/12 09:27:49;;;;;;;0.30;0.20;;;;;;;10.68;93.70;99031.91;5013959;28;20452;-48
2024/02/12 09:30:16;;;;;;;0.30;0.20;;;;;;;10.84;93.37;99040.88;5013690;28;20444;-48
2024/02/12 09:32:46;;;;;;;0.30;0.20;;;;;;;10.90;92.67;99034.38;5013607;28;20499;-48
2024/02/12 09:35:17;;;;;;;0.30;0.20;;;;;;;10.92;92.50;99040.47;5013533;28;20466;-49
2024/02/12 09:37:46;;;;;;;0.30;0.20;;;;;;;11.53;91.01;99043.53;5013454;28;20459;-48
2024/02/12 09:40:15;;;;;;;0.30;0.20;;;;;;;11.35;90.34;99043.59;5013555;28;20899;-47
2024/02/12 09:42:42;;;;;;;0.30;0.20;;;;;;;11.53;89.49;99040.88;5013377;28;20475;-47
2024/02/12 09:45:11;;;;;;;0.30;0.20;;;;;;;11.62;89.31;99051.94;5013374;28;20449;-48
2024/02/12 09:47:43;;;;;;;0.30;0.20;;;;;;;11.46;89.46;99051.91;5013413;28;20431;-48
2024/02/12 09:50:12;;;;;;;0.30;0.20;;;;;;;11.45;90.12;99048.38;5013448;28;20477;-48
2024/02/12 09:52:41;;;;;;;0.30;0.20;;;;;;;11.73;89.68;99063.75;5013147;28;20492;-48
2024/02/12 09:55:09;;;;;;;0.30;0.20;;;;;;;11.80;88.29;99053.69;5013637;28;20909;-47
2024/02/12 09:57:35;;;;;;;0.30;0.20;;;;;;;11.59;88.60;99060.97;5013147;28;20457;-47
2024/02/12 10:00:07;;;;;;;0.30;0.20;;;;;;;11.71;88.63;99062.13;5012975;28;20571;-48
2024/02/12 10:02:36;;;;;;;0.30;0.20;;;;;;;11.63;87.34;99062.50;5013162;28;20469;-47
2024/02/12 10:05:06;;;;;;;0.30;0.20;;;;;;;11.77;87.91;99067.09;5012778;28;20415;-47
2024/02/12 10:07:39;;;;;;;0.30;0.20;;;;;;;11.64;88.75;99063.38;5012968;28;20527;-47
2024/02/12 10:10:07;;;;;;;0.30;0.20;;;;;;;11.55;88.66;99064.72;5013277;28;20446;-47
2024/02/12 10:12:37;;;;;;;0.30;0.20;;;;;;;11.72;87.79;99067.34;5012540;28;20473;-47
2024/02/12 10:15:05;;;;;;;0.30;0.20;;;;;;;11.71;87.21;99073.63;5012502;28;20876;-47
2024/02/12 10:17:32;;;;;;;0.30;0.20;;;;;;;11.63;87.26;99075.81;5012781;28;20445;-47
2024/02/12 10:19:59;;;;;;;2.80;2.00;;;;;;;11.65;86.83;99078.41;5011601;28;20427;-48
2024/02/12 10:22:26;;;;;;;0.30;0.20;;;;;;;11.75;87.47;99075.19;5012871;28;20486;-48
2024/02/12 10:24:52;;;;;;;0.30;0.20;;;;;;;11.64;87.40;99077.53;5012629;28;20510;-47
2024/02/12 10:27:20;;;;;;;0.30;0.20;;;;;;;11.38;88.82;99084.25;5012759;28;20499;-47
2024/02/12 10:30:05;;;;;;;0.30;0.20;;;;;;;11.61;87.76;99084.81;5012576;28;20428;-48
2024/02/12 10:32:34;;;;;;;0.30;0.20;;;;;;;11.69;87.54;99088.81;5012708;28;20447;-48
2024/02/12 10:35:06;;;;;;;0.30;0.20;;;;;;;11.52;88.36;99084.38;5012754;28;20499;-47
2024/02/12 10:37:35;;;;;;;0.30;0.20;;;;;;;11.72;86.96;99078.00;5012697;28;20502;-47
2024/02/12 10:40:12;;;;;;;0.30;0.20;;;;;;;11.68;87.21;99081.78;5012704;28;20514;-47
2024/02/12 10:42:52;;;;;;;0.30;0.20;;;;;;;11.75;86.54;99085.81;5012418;28;20539;-47
2024/02/12 10:45:19;;;;;;;0.30;0.20;;;;;;;11.55;86.16;99088.69;5012311;28;20415;-48
2024/02/12 10:47:47;;;;;;;0.30;0.20;;;;;;;11.66;86.80;99085.47;5012289;28;20456;-47
2024/02/12 10:50:17;;;;;;;0.30;0.20;;;;;;;11.62;86.34;99079.41;5012259;28;20431;-47
2024/02/12 10:52:46;;;;;;;0.30;0.20;;;;;;;12.19;85.61;99089.75;5012112;28;20512;-47
2024/02/12 10:55:13;;;;;;;0.30;0.20;;;;;;;12.19;85.18;99084.41;5012277;28;20594;-47
2024/02/12 10:57:42;;;;;;;0.30;0.20;;;;;;;11.89;86.03;99093.13;5012658;28;20551;-46
2024/02/12 11:00:19;;;;;;;0.30;0.20;;;;;;;12.01;85.37;99094.28;5012468;28;20423;-46
2024/02/12 11:02:50;;;;;;;0.30;0.20;;;;;;;12.25;84.64;99092.94;5012537;28;20511;-46
2024/02/12 11:05:17;;;;;;;0.30;0.20;;;;;;;12.14;84.53;99096.19;5012327;28;20420;-47
2024/02/12 11:07:45;;;;;;;0.30;0.20;;;;;;;12.02;84.08;99098.66;5012887;28;20451;-46
2024/02/12 11:10:23;;;;;;;0.30;0.20;;;;;;;12.43;83.86;99102.59;5012292;28;20559;-47
2024/02/12 11:12:50;;;;;;;0.30;0.20;;;;;;;12.14;83.80;99092.66;4999953;28;20448;-46
2024/02/12 11:15:35;;;;;;;0.30;0.20;;;;;;;12.23;83.43;99091.31;5011522;28;20842;-47
2024/02/12 11:18:12;;;;;;;0.30;0.20;;;;;;;12.11;83.63;99100.84;5012558;28;20455;-46
2024/02/12 11:20:49;;;;;;;0.30;0.20;;;;;;;12.31;83.38;99097.06;5012466;28;20882;-47
2024/02/12 11:23:22;;;;;;;0.30;0.20;;;;;;;12.11;82.81;99104.34;5012494;28;20472;-47
2024/02/12 11:25:50;;;;;;;0.30;0.20;;;;;;;12.46;83.15;99104.22;5011975;28;21059;-50
2024/02/12 11:28:23;;;;;;;0.30;0.20;;;;;;;12.70;81.65;99097.53;5012590;28;20503;-47
2024/02/12 11:30:50;;;;;;;0.30;0.20;;;;;;;12.35;82.92;99106.63;5013077;28;20463;-48
2024/02/12 11:33:19;;;;;;;0.30;0.20;;;;;;;12.53;82.35;99113.59;5015913;28;20448;-47
2024/02/12 11:35:46;;;;;;;0.30;0.20;;;;;;;12.45;81.80;99113.16;5015715;28;20495;-47
2024/02/12 11:38:13;;;;;;;0.40;0.20;;;;;;;12.28;81.68;99113.22;5015901;28;20426;-47
2024/02/12 11:40:40;;;;;;;0.30;0.20;;;;;;;12.29;80.90;99113.16;5015471;28;20431;-48
2024/02/12 11:43:07;;;;;;;0.30;0.20;;;;;;;12.18;81.55;99109.34;5009084;28;20430;-48
2024/02/12 11:45:36;;;;;;;0.30;0.20;;;;;;;12.15;81.75;99116.56;5015475;28;20483;-47
2024/02/12 11:48:10;;;;;;;0.30;0.20;;;;;;;12.16;80.79;99112.94;5015573;28;20518;-47
2024/02/12 11:50:38;;;;;;;0.30;0.20;;;;;;;12.02;79.36;99117.28;5015447;28;20535;-47
2024/02/12 11:53:05;;;;;;;0.30;0.20;;;;;;;12.22;77.94;99119.75;5015377;28;20480;-48